Timeline UpdatesTrip UpdatesNews PostsPvt PostsTravel TipsAdmin PostsConv PostsFollowed PostsChat RequestsBlog PostsPNR Posts

Disclaimer
Search
 
 
Wed Sep 17, 2014 10:59:52 ISTHomeTrainsΣChainsAtlasPNRForumGalleryNewsFAQTripsMembersLoginFeedback
No Recent News for this Train
Other Trains in the News **new
Latest...
.
Fri Jan 17, 2014 (09:13PM)
⇐ Return Journey: Train# 13049

13050/Amritsar-Howrah Express

Time-Table HAS CHANGED.
Sep 03 (10:10AM)
Change Departure Station:
Change Arrival Station:
Post a Train Travel TipPost a Train Travel Tip **new
Post a Comment/Question/Picture/VideoPost a Comment/Question/Picture/Video
Pantry/Catering
✕ NO Pantry Car
✕ NO Catering
RSA - Rake Sharing
no RSA
Rake/Coach Composition
LOCO-HCPV-SLR-GEN-B1-S1-S2-S3-S4-GEN-GEN-GEN-GEN-GEN-GEN-MILITARY-SLR
Loco
WAM-4/ WAG-5 [HWH-MGS] LDH WDM2/3A/3D [MGS-MB] GZB WAP-5 [...
Read more...
MB-ASR].
News    PNR    Forum    Time-Table    Availability    Fare Chart    Map    Arr/Dep History    Trips    Gallery    ΣChains    X/O    Timeline    
Travel Time: 1h 53m    6 halts    Distance: 77 km    Avg Speed: 40 km/hr
Type: Mail/Express
Zone: ER/Eastern
Departs @ 10:28
Platform# ???
SMTWTFS
Sitarampur Junction/STN 
Arrives @ 12:21
Platform# ???
SMTWTFS
Mankar/MNAE 

6 halts. 16 intermediate Stations between Sitarampur Junction and Mankar

Show ALL intermediate Stations  Show Old Time-Table

#CodeStation NameX/OArrivesAvgDepartsAvgHaltPFDay#KmSpeedElevZoneAddress
1ASRAmritsar Junction (5)  -18:10-51-1701.192233mNRAmritsar 143002, Punjab
2BEASBeas Junction (2)X  18:38-18:40-2m21-1658.061238mNRBeas, Punjab
3KREKartarpur (2)X  19:01-19:03-2m11-1636.673236mNRKartarpur, Punjab
4JUCJalandhar City Junction (5)X  19:15-19:23-8m21-1621.922239mNRJalandhar 144001, Punjab
5JRCJalandhar Cantt. Junction (3)X  19:36-19:38-2m21-1617.165239mNRNear Rama Mandi, Punjab
6PGWPhagwara Junction (3)X  19:53-19:55-2m11-1600.875245mNRPhagwara, Punjab
7PHRPhillaur Junction (3)X  20:13-20:15-2m11-1578.252246mNRPhillaur, Punjab
8LDHLudhiana Junction (7)X  20:30-20:40-10m11-1565.251246mNRLudhiana 141001, Punjab
9KNNKhanna (3)X  21:30-21:32-2m11-1522.361269mNRNH 1, Punjab
10GVGMandi Gobindgarh (2)X  21:40-21:42-2m11-1514.253268mNRMandi Gobindgarh, Punjab
11SIRSirhind Junction (3)X  21:53-21:55-2m11-1504.483271mNRSirhind, Punjab
12RPJRajpura Junction (3)X  22:12 22:13-22:14-2 1m21-1479.656272mNRNH-1, Punjab
13UBCAmbala City (3)  22:35 22:36-22:37-2 1m11-1459.120273mNRNH-1, Haryana
14UMBAmbala Cantt. Junction (7)X  23:00-23:10-10m11-1451.581278mNRAmbala 133001, Haryana
15JUDWJagadhri Workshop (2)  23:43 23:44-23:45-2 1m11-1405.550280mNRRailway Workshop Road, Haryana
16JUDYamunanagar-Jagadhri (3)X  23:51-23:53-2m21-1400.543275mNRYamunanagar, Haryana
17SRESaharanpur Junction (6)X  00:35-00:55-20m32-1370.465276mNRSaharanpur, Uttar Pradesh
18RKRoorkee (3)  01:25 01:27-01:27 01:32-2 5m12-1335.759264mNRRoorkee - 247667, Uttarakhand
19LRJLaksar Junction (4)X  01:50-01:55-5m12-1317.972238mNRLaksar, Uttarakhand
20NBDNajibabad Junction (3)X  02:30-02:35-5m12-1276.062269mNRNajibabad, Uttar Pradesh
21MBMoradabad Junction (7)  04:10-04:20-10m32-1177.055201mNRMoradabad, Uttar Pradesh
22RJKRaja Ka SahaspurX  04:48 04:46-04:50 04:48-2m--2-1153.241196mNRBilari, Uttar Pradesh
23CHChandausi Junction (3)  05:20 05:17-05:25 05:22-5m--2-1133.348193mNRChandausi, Uttar Pradesh
24AOAonla (2)06:08 06:15-06:10 06:17-2m--2-1091.132176mNRDist. Bareilly, Uttar Pradesh
25CHTIChanehti Junction new halt!!X  07:07-07:09-2m--2-1064.560168mNRBareilly, Uttar Pradesh
26PMRPitambarpurX  07:33 07:25-07:35 07:27-2m--2-1048.472171mNRPitambarpur, Uttar Pradesh
27TLHTilhar  07:52 07:54-07:54 07:56-2m--2-1015.930163mNRTilhar, Uttar Pradesh
28SPNShahjahanpur Junction (3)X  08:32-08:37-5m--2-997.871156mNRShahjahanpur, Uttar Pradesh
29AJIAnjhi Shahabad  09:01 09:03-09:03 09:05-2m--2-967.077148mNRAnjhi Shahabad, Uttar Pradesh
30HRIHardoi (5)X  09:28 09:30-09:30 09:35-2 5m32-934.879146mNRHardoi, Uttar Pradesh
31BLMBalamau Junction (4)X  10:00-10:02-2m--2-901.758139mNRBalamau, Uttar Pradesh
32SANSandila (3)O  10:23-10:25-2m--2-881.447132mNRSandila, Uttar Pradesh
33AMGAlamnagar (3)  11:18-11:20-2m22-839.917126mNRLucknow, Uttar Pradesh
34LKOLucknow Charbagh NR (9)  11:45-12:10-25m42-832.959123mNR226004, Uttar Pradesh
35HGHHaidergarh (2)X  13:07 13:08-13:09-2 1m12-776.244116mNRState Highway 13, Uttar Pradesh
36AKJAkbarGanj (1)  13:31 13:32-13:33-2 1m12-759.276112mNRSH 31, Uttar Pradesh
37NHHNihalgarh (3)  13:45-13:47-2m12-744.071108mNRJagdishpur, Uttar Pradesh
38MFKAMusafir Khana (3)  14:02 14:03-14:04-2 1m12-725.149105mNRMusfirKhana, Uttar Pradesh
39SLNSultanpur Junction (3)X  14:43-14:48-5m22-693.57399mNRSultanpur., Uttar Pradesh
40LBALambhua (1)  15:06-15:08-2m12-671.65797mNRLambhua, Uttar Pradesh
41KEPRKoiripur (1)  15:25 15:26-15:27-2 1m12-654.48096mNRNational Highway 56, Uttar Pradesh
42HRPGHarpalGanj (1)  15:35-15:37-2m12-643.74490mNRNational Highway 56, Uttar Pradesh
43SKNSri Krishna Nagar (2)X  15:47 15:48-15:49-2 1m12-635.75892mNRBadlapur, Uttar Pradesh
44JOPJaunpur City (3)X  16:18-16:20-2m12-607.72187mNRJaunpur, Uttar Pradesh
45ZBDZafarabad Junction (4)X  16:38-16:40-2m12-601.42583mNRNational Highway 56, Uttar Pradesh
46KSFKhalispur (2)X  17:37-17:39-2m--2-578.12683mNRPhulpur, Uttar Pradesh
47PDRDPindra Road (2)  17:47 17:48-17:49-2 1m--2-574.22581mNRSatomahua-Mangari Rd, Uttar Pradesh
48BTPBabatpur (2)X  18:01 18:02-18:03-2 1m--2-568.82784mNRSatomahua-Mangari Rd, Uttar Pradesh
49SOPShivpur (3)  18:32-18:34-2m--2-555.81681mNRVaranasi, Uttar Pradesh
50BSBVaranasi Junction (9)X  18:55-19:15-20m62-550.22382mNRVaranasi 221002, Uttar Pradesh
51KEIKashi (3)X  19:29-19:31-2m--2-544.91385mNRVaranasi, Uttar Pradesh
52MGSMughal Sarai Junction (8)X20:20-20:40-20m12-533.94083mECRMughalsarai 232101, Uttar Pradesh
53KCAKuchman (2)X  20:56-20:58-2m--2-523.37679mECRKuchman, Uttar Pradesh
54SLDSakaldiha (2)X  21:04-21:06-2m--2-515.77581mECRState Highway 69, Uttar Pradesh
55DHADheena  21:17-21:19-2m--2-502.17474mECRDheena, Uttar Pradesh
56ZNAZamania (2)X  21:29-21:31-2m--2-489.76277mECRGhazipur, Uttar Pradesh
57DLNDildarnagar Junction (2)X  21:44-21:46-2m--2-476.26772mECRDildarnagar, Uttar Pradesh
58BWHBhadaura (2)XO  21:52 21:53-21:54 21:55-2m--2-468.47069mECRGhazipur, Uttar Pradesh
59GMRGahmar (2)  22:02-22:04-2m--2-460.24668mECRDistt: Ghazipur, Uttar Pradesh
60CSAChausa (2)  22:16-22:18-2m--2-450.96668mECRState Highway 14, Bihar
61BXRBuxar (3)X  22:28-22:32-4m--2-440.08967mECRBuxar, Bihar
62DUREDumraon (3)  22:43-22:45-2m--2-423.76570mECRDumraon, Bihar
63TWGTwining GanjX  22:52-22:54-2m--2-416.16370mECRArrah Buxar Rd, Bihar
64RPRRaghunathpur (4)XO  23:02-23:04-2m--2-407.76669mECRRaghunathpur, Bihar
65BYNBanahi (2)  23:12-23:14-2m--2-398.95967mECRBanahi, Bihar
66BEABihiya (3)X  23:20-23:22-2m--2-392.94167mECRBehea, Bihar
67ARAAra Junction (3)X  23:53-23:58-5m--2-371.58363mECRarrah( 06182-233411), Bihar
68BTABihta (2)  00:14-00:16-2m--3-349.31762mECRDistt: Patna, Bihar
69DNRDanapur (5)X  01:18-01:28-10m--3-332.01258mECRKhagaul, Bihar
70PNBEPatna Junction (10)X  02:15-02:30-15m--3-322.64257mECRPatna 800001, Bihar
71PNCPatna Saheb (3)  02:44-02:46-2m--3-312.76159mECRPatna 800008, Bihar
72FUTFatwa (6)X  02:58-03:00-2m--3-300.57053mECRPatna, Bihar
73BKPBakhtiyarpur Junction (5)  03:20-03:22-2m--3-277.29151mECRPatna, Bihar
74BARHBarh (3)X  03:34-03:36-2m--3-259.16449mECRBarh, Bihar
75MKAMokama Junction (4)O  04:00-04:02-2m--3-233.36348mECRPatna, Bihar
76HTZHathidah Junction (2)  04:10-04:12-2m13-225.03550mECRMusahari, Bihar
77BRYABarhiya (3)  04:28-04:30-2m--3-215.66547mECRBarahiya, Bihar
78LKRLuckeesarai Junction (2)X  04:44-04:46-2m--3-200.5952mECRLakhisarai, Bihar
79KIULKiul Junction (5)X  04:55-05:00-5m--3-199.12053mECRDist. Lakhisarai, Bihar
80MNPMananpur (2)X  05:21-05:23-2m--3-192.210257mECRState Highway 18, Bihar
81JMUJamui (3)X  05:34 05:35-05:36 05:37-2m--3-171.87381mECRState Highway 72, Bihar
82GHRGidhaur (2)X  05:49-05:51-2m--3-157.39106mECRState Highway 18, Bihar
83JAJJhajha (4)  07:07-07:17-10m--3-145.875143mECRJhajha, Bihar
84STLSimultala (2)X  07:32-07:34-2m--3-127.259247mERSimultala, Bihar
85JSMEJasidih Junction (5)  08:00-08:05-5m--3-101.875271mERJasidih, Jharkhand
86MUWMathurapur (2)  08:19-08:21-2m--3-84.354261mERDeoghar, Jharkhand
87MDPMadhupur Junction (4)X  08:34-08:44-10m33-72.781254mER06432-224478, Jharkhand
88VDSVidyasagar (2)X  09:02-09:04-2m--3-48.567250mERJamtara, Jharkhand
89JMTJamtara (2)X  09:20-09:22-2m23-30.648201mERJamtara, Jharkhand
90CRJChittaranjan (3)X  09:40-09:42-2m23-16.355182mERMihijam, Jharkhand
91RNPRRupnarayanpur (3)XO  09:47-09:49-2m--3-11.719191mERChittaranjan, West Bengal
92STN»Sitarampur Junction (5)»XO  10:26-10:28-2m--30.024139mERG T Rd Before Asansol, West Bengal
93ASNAsansol Junction (7)X  10:50-11:05-15m338.872113mERDist - Bardhaman, West Bengal
94RNGRaniGanj (4)X  11:20-11:22-2m--326.94092mERRaniganj, West Bengal
95UDLAndal Junction (6)  11:33-11:35-2m--334.28286mERAndal, West Bengal
96OYRWaria (4)  11:41-11:43-2m--342.45372mERDurgapur, West Bengal
97DGRDurgapur (5)  11:53-11:57-4m--351.29471mERDurgapur, West Bengal
98PANPanagarh (4)X  12:07-12:09-2m--366.85170mERKaksa, West Bengal
99MNAE•Mankar (4)•  12:21-12:23-2m--377.04965mERMankur, West Bengal
100KANKhana Junction (5)X  12:53-12:55-2m--3101.74942mERDist - Bardhaman, West Bengal
101BWNBarddhaman Junction (8)X  13:11-13:16-5m--3114.76834mERDist - Barddhaman, West Bengal
102BDCBandel Junction (7)  14:15-14:23-8m--3182.04514mERdist - HOOGHLY, West Bengal
103CNSChuchura (3)  14:28-14:30-2m--3185.84515mERDist - HOOGHLY - 712102, West Bengal
104CGRChandan Nagar (3)X  14:34-14:36-2m--3188.84016mERDist -HOOGHLY - 712136, West Bengal
105SHESeoraphuli Junction (6)  14:52-14:54-2m--3199.45113mERBaidyabati, West Bengal
106SRPSerampore (4)  14:57-14:59-2m--3201.92511mERdist - hooghly, West Bengal
107HWHKolkata Howrah Junction (23)  15:45--113221.5-10mERHowrah 711101, West Bengal
Scroll to Top
Scroll to Bottom